sensor_id;sensor_type;location;lat;lon;timestamp;pressure;altitude;pressure_sealevel;temperature;humidity
55044;BME280;54902;50.420;18.854;2022-07-23T00:00:01;101776.70;;;20.40;54.47
55044;BME280;54902;50.420;18.854;2022-07-23T00:00:20;101774.09;;;20.39;54.47
55044;BME280;54902;50.420;18.854;2022-07-23T00:00:36;101784.16;;;20.40;54.35
55044;BME280;54902;50.420;18.854;2022-07-23T00:00:52;101777.73;;;20.39;54.38
55044;BME280;54902;50.420;18.854;2022-07-23T00:01:08;101776.16;;;20.37;54.34
55044;BME280;54902;50.420;18.854;2022-07-23T00:01:24;101784.34;;;20.38;54.29
55044;BME280;54902;50.420;18.854;2022-07-23T00:01:40;101775.98;;;20.38;54.32
55044;BME280;54902;50.420;18.854;2022-07-23T00:01:57;101780.88;;;20.36;54.32
55044;BME280;54902;50.420;18.854;2022-07-23T00:02:14;101785.57;;;20.36;54.52
55044;BME280;54902;50.420;18.854;2022-07-23T00:02:29;101779.13;;;20.35;54.53
55044;BME280;54902;50.420;18.854;2022-07-23T00:02:54;101788.53;;;20.34;54.58
55044;BME280;54902;50.420;18.854;2022-07-23T00:03:10;101782.97;;;20.34;54.59
55044;BME280;54902;50.420;18.854;2022-07-23T00:03:35;101789.42;;;20.35;54.62
55044;BME280;54902;50.420;18.854;2022-07-23T00:03:51;101776.53;;;20.34;54.77
55044;BME280;54902;50.420;18.854;2022-07-23T00:04:10;101780.17;;;20.34;54.71
55044;BME280;54902;50.420;18.854;2022-07-23T00:04:26;101775.64;;;20.33;54.72
55044;BME280;54902;50.420;18.854;2022-07-23T00:04:42;101779.13;;;20.35;54.53
55044;BME280;54902;50.420;18.854;2022-07-23T00:04:58;101791.14;;;20.36;54.62
55044;BME280;54902;50.420;18.854;2022-07-23T00:05:14;101783.85;;;20.35;54.56
55044;BME280;54902;50.420;18.854;2022-07-23T00:05:30;101786.64;;;20.35;54.56
55044;BME280;54902;50.420;18.854;2022-07-23T00:05:46;101779.32;;;20.34;54.46
55044;BME280;54902;50.420;18.854;2022-07-23T00:06:02;101784.00;;;20.33;54.41
55044;BME280;54902;50.420;18.854;2022-07-23T00:06:18;101788.71;;;20.33;54.47
55044;BME280;54902;50.420;18.854;2022-07-23T00:06:34;101786.79;;;20.33;54.41
55044;BME280;54902;50.420;18.854;2022-07-23T00:06:50;101788.53;;;20.34;54.52
55044;BME280;54902;50.420;18.854;2022-07-23T00:07:06;101778.61;;;20.32;54.44
55044;BME280;54902;50.420;18.854;2022-07-23T00:07:22;101783.14;;;20.33;54.57
55044;BME280;54902;50.420;18.854;2022-07-23T00:07:39;101782.28;;;20.32;54.49
55044;BME280;54902;50.420;18.854;2022-07-23T00:07:55;101775.82;;;20.32;54.52
55044;BME280;54902;50.420;18.854;2022-07-23T00:08:11;101777.75;;;20.31;54.49
55044;BME280;54902;50.420;18.854;2022-07-23T00:08:28;101776.00;;;20.30;54.46
55044;BME280;54902;50.420;18.854;2022-07-23T00:08:44;101783.14;;;20.33;54.49
55044;BME280;54902;50.420;18.854;2022-07-23T00:09:00;101778.61;;;20.32;54.55
55044;BME280;54902;50.420;18.854;2022-07-23T00:09:16;101778.61;;;20.32;54.48
55044;BME280;54902;50.420;18.854;2022-07-23T00:09:32;101785.92;;;20.33;54.48
55044;BME280;54902;50.420;18.854;2022-07-23T00:09:48;101780.71;;;20.30;54.61
55044;BME280;54902;50.420;18.854;2022-07-23T00:10:05;101784.18;;;20.32;54.48
55044;BME280;54902;50.420;18.854;2022-07-23T00:10:21;101778.61;;;20.32;54.39
55044;BME280;54902;50.420;18.854;2022-07-23T00:10:37;101775.14;;;20.30;54.51
55044;BME280;54902;50.420;18.854;2022-07-23T00:10:54;101778.98;;;20.29;54.64
55044;BME280;54902;50.420;18.854;2022-07-23T00:11:10;101780.71;;;20.30;54.66
55044;BME280;54902;50.420;18.854;2022-07-23T00:11:26;101778.78;;;20.30;54.57
55044;BME280;54902;50.420;18.854;2022-07-23T00:11:43;101779.82;;;20.29;54.59
55044;BME280;54902;50.420;18.854;2022-07-23T00:11:59;101786.29;;;20.30;54.57
55044;BME280;54902;50.420;18.854;2022-07-23T00:12:15;101779.82;;;20.29;54.64
55044;BME280;54902;50.420;18.854;2022-07-23T00:12:31;101786.29;;;20.30;54.51
55044;BME280;54902;50.420;18.854;2022-07-23T00:12:47;101784.53;;;20.29;54.62
55044;BME280;54902;50.420;18.854;2022-07-23T00:13:03;101788.38;;;20.28;54.48
55044;BME280;54902;50.420;18.854;2022-07-23T00:13:19;101775.84;;;20.24;54.56
55044;BME280;54902;50.420;18.854;2022-07-23T00:13:35;101781.94;;;20.27;54.54
55044;BME280;54902;50.420;18.854;2022-07-23T00:13:51;101783.69;;;20.28;54.54
55044;BME280;54902;50.420;18.854;2022-07-23T00:14:10;101781.94;;;20.27;54.64
55044;BME280;54902;50.420;18.854;2022-07-23T00:14:26;101786.80;;;20.25;54.52
55044;BME280;54902;50.420;18.854;2022-07-23T00:14:42;101784.53;;;20.29;54.61
55044;BME280;54902;50.420;18.854;2022-07-23T00:14:48;101787.51;;;20.27;54.62
55044;BME280;54902;50.420;18.854;2022-07-23T00:14:58;101789.41;;;20.27;54.53
55044;BME280;54902;50.420;18.854;2022-07-23T00:15:14;101781.23;;;20.25;54.60
55044;BME280;54902;50.420;18.854;2022-07-23T00:15:30;101787.33;;;20.29;54.50
55044;BME280;54902;50.420;18.854;2022-07-23T00:15:46;101794.13;;;20.26;54.60
55044;BME280;54902;50.420;18.854;2022-07-23T00:16:03;101791.34;;;20.26;54.62
55044;BME280;54902;50.420;18.854;2022-07-23T00:16:19;101784.91;;;20.26;54.63
55044;BME280;54902;50.420;18.854;2022-07-23T00:16:35;101793.95;;;20.28;54.62
55044;BME280;54902;50.420;18.854;2022-07-23T00:16:51;101779.33;;;20.26;54.66
55044;BME280;54902;50.420;18.854;2022-07-23T00:17:07;101783.16;;;20.25;54.49
55044;BME280;54902;50.420;18.854;2022-07-23T00:17:23;101783.16;;;20.25;54.63
55044;BME280;54902;50.420;18.854;2022-07-23T00:17:39;101781.41;;;20.24;54.60
55044;BME280;54902;50.420;18.854;2022-07-23T00:17:56;101790.80;;;20.23;54.80
55044;BME280;54902;50.420;18.854;2022-07-23T00:18:12;101788.02;;;20.23;54.67
55044;BME280;54902;50.420;18.854;2022-07-23T00:18:28;101779.66;;;20.23;54.84
55044;BME280;54902;50.420;18.854;2022-07-23T00:18:44;101786.98;;;20.24;54.73
55044;BME280;54902;50.420;18.854;2022-07-23T00:19:00;101778.62;;;20.24;54.78
55044;BME280;54902;50.420;18.854;2022-07-23T00:19:18;101785.23;;;20.23;54.67
55044;BME280;54902;50.420;18.854;2022-07-23T00:19:37;101787.34;;;20.21;54.83
55044;BME280;54902;50.420;18.854;2022-07-23T00:19:53;101790.12;;;20.21;54.88
55044;BME280;54902;50.420;18.854;2022-07-23T00:20:10;101778.12;;;20.20;54.94
55044;BME280;54902;50.420;18.854;2022-07-23T00:20:26;101780.91;;;20.20;54.69
55044;BME280;54902;50.420;18.854;2022-07-23T00:20:48;101786.48;;;20.20;54.88
55044;BME280;54902;50.420;18.854;2022-07-23T00:21:04;101774.63;;;20.18;54.95
55044;BME280;54902;50.420;18.854;2022-07-23T00:21:20;101787.34;;;20.21;54.63
55044;BME280;54902;50.420;18.854;2022-07-23T00:21:36;101781.77;;;20.21;54.77
55044;BME280;54902;50.420;18.854;2022-07-23T00:21:52;101774.63;;;20.18;54.84
55044;BME280;54902;50.420;18.854;2022-07-23T00:22:08;101781.05;;;20.19;54.69
55044;BME280;54902;50.420;18.854;2022-07-23T00:22:25;101784.55;;;20.21;54.75
55044;BME280;54902;50.420;18.854;2022-07-23T00:22:48;101770.09;;;20.17;54.69
55044;BME280;54902;50.420;18.854;2022-07-23T00:23:04;101781.23;;;20.17;54.94
55044;BME280;54902;50.420;18.854;2022-07-23T00:23:20;101785.77;;;20.18;54.74
55044;BME280;54902;50.420;18.854;2022-07-23T00:23:36;101782.13;;;20.18;54.64
55044;BME280;54902;50.420;18.854;2022-07-23T00:23:52;101782.13;;;20.18;54.77
55044;BME280;54902;50.420;18.854;2022-07-23T00:24:08;101790.48;;;20.18;54.71
55044;BME280;54902;50.420;18.854;2022-07-23T00:24:24;101789.59;;;20.17;54.73
55044;BME280;54902;50.420;18.854;2022-07-23T00:24:41;101786.81;;;20.17;54.75
55044;BME280;54902;50.420;18.854;2022-07-23T00:24:57;101786.13;;;20.15;54.72
55044;BME280;54902;50.420;18.854;2022-07-23T00:25:13;101790.63;;;20.16;54.81
55044;BME280;54902;50.420;18.854;2022-07-23T00:25:29;101785.95;;;20.17;54.68
55044;BME280;54902;50.420;18.854;2022-07-23T00:25:45;101794.49;;;20.15;54.95
55044;BME280;54902;50.420;18.854;2022-07-23T00:26:01;101780.73;;;20.14;54.82
55044;BME280;54902;50.420;18.854;2022-07-23T00:26:17;101785.42;;;20.13;54.83
55044;BME280;54902;50.420;18.854;2022-07-23T00:26:33;101790.13;;;20.13;54.72
55044;BME280;54902;50.420;18.854;2022-07-23T00:26:49;101794.80;;;20.12;54.84
55044;BME280;54902;50.420;18.854;2022-07-23T00:27:06;101792.92;;;20.13;54.83
55044;BME280;54902;50.420;18.854;2022-07-23T00:27:23;101797.78;;;20.11;54.93
55044;BME280;54902;50.420;18.854;2022-07-23T00:27:39;101789.24;;;20.12;54.99
55044;BME280;54902;50.420;18.854;2022-07-23T00:27:55;101793.96;;;20.12;54.72
55044;BME280;54902;50.420;18.854;2022-07-23T00:28:11;101781.96;;;20.11;54.88
55044;BME280;54902;50.420;18.854;2022-07-23T00:28:28;101785.78;;;20.10;54.81
55044;BME280;54902;50.420;18.854;2022-07-23T00:28:44;101783.85;;;20.11;54.82
55044;BME280;54902;50.420;18.854;2022-07-23T00:29:00;101789.60;;;20.09;54.84
55044;BME280;54902;50.420;18.854;2022-07-23T00:29:16;101784.03;;;20.09;54.81
55044;BME280;54902;50.420;18.854;2022-07-23T00:29:32;101784.92;;;20.10;54.75
55044;BME280;54902;50.420;18.854;2022-07-23T00:29:48;101790.49;;;20.10;54.74
55044;BME280;54902;50.420;18.854;2022-07-23T00:29:54;101792.39;;;20.09;54.80
55044;BME280;54902;50.420;18.854;2022-07-23T00:30:05;101781.43;;;20.08;54.73
55044;BME280;54902;50.420;18.854;2022-07-23T00:30:21;101786.81;;;20.09;54.88
55044;BME280;54902;50.420;18.854;2022-07-23T00:30:37;101786.99;;;20.08;54.72
55044;BME280;54902;50.420;18.854;2022-07-23T00:30:53;101785.06;;;20.08;54.61
55044;BME280;54902;50.420;18.854;2022-07-23T00:31:10;101785.25;;;20.07;54.89
55044;BME280;54902;50.420;18.854;2022-07-23T00:31:26;101786.99;;;20.08;54.85
55044;BME280;54902;50.420;18.854;2022-07-23T00:31:43;101784.56;;;20.05;54.80
55044;BME280;54902;50.420;18.854;2022-07-23T00:31:59;101780.74;;;20.06;54.77
55044;BME280;54902;50.420;18.854;2022-07-23T00:32:15;101784.39;;;20.06;54.85
55044;BME280;54902;50.420;18.854;2022-07-23T00:32:31;101779.00;;;20.05;54.89
55044;BME280;54902;50.420;18.854;2022-07-23T00:32:50;101782.64;;;20.05;54.92
55044;BME280;54902;50.420;18.854;2022-07-23T00:33:07;101785.42;;;20.05;54.73
55044;BME280;54902;50.420;18.854;2022-07-23T00:33:23;101788.92;;;20.07;54.89
55044;BME280;54902;50.420;18.854;2022-07-23T00:33:39;101781.78;;;20.05;54.72
55044;BME280;54902;50.420;18.854;2022-07-23T00:33:55;101777.25;;;20.04;54.89
55044;BME280;54902;50.420;18.854;2022-07-23T00:34:16;101788.21;;;20.05;54.95
55044;BME280;54902;50.420;18.854;2022-07-23T00:34:33;101777.42;;;20.02;54.70
55044;BME280;54902;50.420;18.854;2022-07-23T00:34:49;101780.03;;;20.04;54.73
55044;BME280;54902;50.420;18.854;2022-07-23T00:35:05;101778.28;;;20.03;54.76
55044;BME280;54902;50.420;18.854;2022-07-23T00:35:23;101782.10;;;20.02;54.92
55044;BME280;54902;50.420;18.854;2022-07-23T00:35:40;101782.99;;;20.02;54.99
55044;BME280;54902;50.420;18.854;2022-07-23T00:35:56;101782.99;;;20.02;55.04
55044;BME280;54902;50.420;18.854;2022-07-23T00:36:12;101787.68;;;20.02;54.84
55044;BME280;54902;50.420;18.854;2022-07-23T00:36:28;101787.68;;;20.02;54.99
55044;BME280;54902;50.420;18.854;2022-07-23T00:36:46;101784.89;;;20.02;55.03
55044;BME280;54902;50.420;18.854;2022-07-23T00:37:02;101784.03;;;20.01;54.91
55044;BME280;54902;50.420;18.854;2022-07-23T00:37:18;101777.60;;;20.01;54.99
55044;BME280;54902;50.420;18.854;2022-07-23T00:37:34;101784.89;;;20.02;54.87
55044;BME280;54902;50.420;18.854;2022-07-23T00:37:50;101780.39;;;20.01;54.90
55044;BME280;54902;50.420;18.854;2022-07-23T00:38:08;101781.43;;;20.00;54.96
55044;BME280;54902;50.420;18.854;2022-07-23T00:38:25;101779.32;;;20.02;55.04
55044;BME280;54902;50.420;18.854;2022-07-23T00:38:41;101779.32;;;20.02;54.88
55044;BME280;54902;50.420;18.854;2022-07-23T00:38:57;101779.32;;;20.02;55.05
55044;BME280;54902;50.420;18.854;2022-07-23T00:39:13;101772.21;;;19.99;55.16
55044;BME280;54902;50.420;18.854;2022-07-23T00:39:29;101776.71;;;20.00;55.14
55044;BME280;54902;50.420;18.854;2022-07-23T00:39:45;101777.60;;;20.01;55.05
55044;BME280;54902;50.420;18.854;2022-07-23T00:40:01;101777.78;;;19.99;55.09
55044;BME280;54902;50.420;18.854;2022-07-23T00:40:17;101781.24;;;20.01;54.99
55044;BME280;54902;50.420;18.854;2022-07-23T00:40:33;101780.39;;;20.01;55.06
55044;BME280;54902;50.420;18.854;2022-07-23T00:40:50;101791.85;;;19.98;55.16
55044;BME280;54902;50.420;18.854;2022-07-23T00:41:06;101775.14;;;19.98;55.02
55044;BME280;54902;50.420;18.854;2022-07-23T00:41:23;101778.64;;;20.00;55.01
55044;BME280;54902;50.420;18.854;2022-07-23T00:41:39;101770.46;;;19.98;55.08
55044;BME280;54902;50.420;18.854;2022-07-23T00:41:55;101778.64;;;20.00;54.96
55044;BME280;54902;50.420;18.854;2022-07-23T00:42:11;101779.67;;;19.99;55.07
55044;BME280;54902;50.420;18.854;2022-07-23T00:42:27;101775.14;;;19.98;55.09
55044;BME280;54902;50.420;18.854;2022-07-23T00:42:44;101779.50;;;20.00;54.90
55044;BME280;54902;50.420;18.854;2022-07-23T00:43:00;101776.89;;;19.99;54.99
55044;BME280;54902;50.420;18.854;2022-07-23T00:43:16;101778.81;;;19.98;55.03
55044;BME280;54902;50.420;18.854;2022-07-23T00:43:32;101766.97;;;19.96;54.97
55044;BME280;54902;50.420;18.854;2022-07-23T00:43:48;101776.21;;;19.97;55.08
55044;BME280;54902;50.420;18.854;2022-07-23T00:44:17;101769.74;;;19.96;55.07
55044;BME280;54902;50.420;18.854;2022-07-23T00:44:33;101781.96;;;19.95;55.12
55044;BME280;54902;50.420;18.854;2022-07-23T00:44:49;101772.53;;;19.96;55.01
55044;BME280;54902;50.420;18.854;2022-07-23T00:44:56;101788.38;;;19.96;55.05
55044;BME280;54902;50.420;18.854;2022-07-23T00:45:06;101775.49;;;19.95;54.96
55044;BME280;54902;50.420;18.854;2022-07-23T00:45:22;101773.60;;;19.95;55.07
55044;BME280;54902;50.420;18.854;2022-07-23T00:45:38;101768.18;;;19.94;54.89
55044;BME280;54902;50.420;18.854;2022-07-23T00:45:54;101772.71;;;19.95;54.96
55044;BME280;54902;50.420;18.854;2022-07-23T00:46:10;101777.42;;;19.94;55.04
55044;BME280;54902;50.420;18.854;2022-07-23T00:46:26;101779.32;;;19.94;55.12
55044;BME280;54902;50.420;18.854;2022-07-23T00:46:53;101775.68;;;19.93;55.10
55044;BME280;54902;50.420;18.854;2022-07-23T00:47:10;101777.60;;;19.93;55.19
55044;BME280;54902;50.420;18.854;2022-07-23T00:47:26;101783.17;;;19.93;55.22
55044;BME280;54902;50.420;18.854;2022-07-23T00:47:42;101784.89;;;19.94;55.01
55044;BME280;54902;50.420;18.854;2022-07-23T00:47:58;101778.64;;;19.92;55.11
55044;BME280;54902;50.420;18.854;2022-07-23T00:48:14;101775.85;;;19.92;55.16
55044;BME280;54902;50.420;18.854;2022-07-23T00:48:30;101776.89;;;19.91;55.02
55044;BME280;54902;50.420;18.854;2022-07-23T00:48:46;101786.99;;;19.92;55.00
55044;BME280;54902;50.420;18.854;2022-07-23T00:49:03;101785.39;;;19.89;55.19
55044;BME280;54902;50.420;18.854;2022-07-23T00:49:24;101777.92;;;19.90;55.07
55044;BME280;54902;50.420;18.854;2022-07-23T00:49:41;101777.92;;;19.90;55.10
55044;BME280;54902;50.420;18.854;2022-07-23T00:49:57;101785.39;;;19.89;55.09
55044;BME280;54902;50.420;18.854;2022-07-23T00:50:13;101778.07;;;19.88;55.13
55044;BME280;54902;50.420;18.854;2022-07-23T00:50:29;101777.03;;;19.89;55.20
55044;BME280;54902;50.420;18.854;2022-07-23T00:50:46;101782.60;;;19.89;55.11
55044;BME280;54902;50.420;18.854;2022-07-23T00:51:03;101791.14;;;19.88;55.23
55044;BME280;54902;50.420;18.854;2022-07-23T00:51:19;101778.07;;;19.88;55.26
55044;BME280;54902;50.420;18.854;2022-07-23T00:51:35;101784.68;;;19.87;55.20
55044;BME280;54902;50.420;18.854;2022-07-23T00:51:52;101781.89;;;19.87;55.23
55044;BME280;54902;50.420;18.854;2022-07-23T00:52:08;101782.07;;;19.86;55.13
55044;BME280;54902;50.420;18.854;2022-07-23T00:52:24;101779.11;;;19.87;55.07
55044;BME280;54902;50.420;18.854;2022-07-23T00:52:41;101780.35;;;19.85;55.01
55044;BME280;54902;50.420;18.854;2022-07-23T00:52:57;101786.79;;;19.85;55.10
55044;BME280;54902;50.420;18.854;2022-07-23T00:53:13;101779.46;;;19.84;55.26
55044;BME280;54902;50.420;18.854;2022-07-23T00:53:30;101776.50;;;19.86;55.14
55044;BME280;54902;50.420;18.854;2022-07-23T00:53:47;101775.11;;;19.82;55.17
55044;BME280;54902;50.420;18.854;2022-07-23T00:54:03;101785.92;;;19.85;55.12
55044;BME280;54902;50.420;18.854;2022-07-23T00:54:22;101782.43;;;19.83;55.00
55044;BME280;54902;50.420;18.854;2022-07-23T00:54:39;101780.68;;;19.82;55.05
55044;BME280;54902;50.420;18.854;2022-07-23T00:54:56;101779.82;;;19.82;55.13
55044;BME280;54902;50.420;18.854;2022-07-23T00:55:13;101778.25;;;19.79;55.25
55044;BME280;54902;50.420;18.854;2022-07-23T00:55:29;101782.78;;;19.80;55.17
55044;BME280;54902;50.420;18.854;2022-07-23T00:55:47;101777.22;;;19.80;55.23
55044;BME280;54902;50.420;18.854;2022-07-23T00:56:04;101775.46;;;19.79;55.05
55044;BME280;54902;50.420;18.854;2022-07-23T00:56:21;101782.78;;;19.80;55.29
55044;BME280;54902;50.420;18.854;2022-07-23T00:56:37;101775.46;;;19.79;55.11
55044;BME280;54902;50.420;18.854;2022-07-23T00:56:54;101780.17;;;19.79;55.05
55044;BME280;54902;50.420;18.854;2022-07-23T00:57:10;101777.39;;;19.79;55.30
55044;BME280;54902;50.420;18.854;2022-07-23T00:57:26;101790.43;;;19.78;55.24
55044;BME280;54902;50.420;18.854;2022-07-23T00:57:43;101781.39;;;19.76;55.12
55044;BME280;54902;50.420;18.854;2022-07-23T00:57:59;101780.32;;;19.77;55.21
55044;BME280;54902;50.420;18.854;2022-07-23T00:58:17;101776.68;;;19.77;55.11
55044;BME280;54902;50.420;18.854;2022-07-23T00:58:35;101783.11;;;19.77;55.15
55044;BME280;54902;50.420;18.854;2022-07-23T00:58:51;101772.32;;;19.74;55.17
55044;BME280;54902;50.420;18.854;2022-07-23T00:59:08;101775.82;;;19.76;55.08
55044;BME280;54902;50.420;18.854;2022-07-23T00:59:24;101777.03;;;19.74;55.16
55044;BME280;54902;50.420;18.854;2022-07-23T00:59:41;101776.86;;;19.75;55.11
55044;BME280;54902;50.420;18.854;2022-07-23T00:59:57;101778.25;;;19.71;55.02
55044;BME280;54902;50.420;18.854;2022-07-23T00:59:59;101783.29;;;19.76;55.15
55044;BME280;54902;50.420;18.854;2022-07-23T01:00:16;101784.67;;;19.72;55.29
55044;BME280;54902;50.420;18.854;2022-07-23T01:00:32;101774.43;;;19.72;55.29
55044;BME280;54902;50.420;18.854;2022-07-23T01:00:48;101783.81;;;19.71;55.22
55044;BME280;54902;50.420;18.854;2022-07-23T01:01:04;101776.33;;;19.72;55.39
55044;BME280;54902;50.420;18.854;2022-07-23T01:01:27;101767.11;;;19.63;55.36
55044;BME280;54902;50.420;18.854;2022-07-23T01:01:43;101775.46;;;19.71;55.46
55044;BME280;54902;50.420;18.854;2022-07-23T01:02:04;101771.82;;;19.71;55.30
55044;BME280;54902;50.420;18.854;2022-07-23T01:02:22;101784.16;;;19.68;55.44
55044;BME280;54902;50.420;18.854;2022-07-23T01:02:39;101773.90;;;19.69;55.38
55044;BME280;54902;50.420;18.854;2022-07-23T01:02:56;101772.14;;;19.68;55.34
55044;BME280;54902;50.420;18.854;2022-07-23T01:03:12;101774.07;;;19.67;55.37
55044;BME280;54902;50.420;18.854;2022-07-23T01:03:28;101765.72;;;19.67;55.38
55044;BME280;54902;50.420;18.854;2022-07-23T01:03:44;101779.81;;;19.66;55.23
55044;BME280;54902;50.420;18.854;2022-07-23T01:04:00;101782.41;;;19.67;55.32
55044;BME280;54902;50.420;18.854;2022-07-23T01:04:16;101773.36;;;19.65;55.43
55044;BME280;54902;50.420;18.854;2022-07-23T01:04:32;101772.32;;;19.66;55.47
55044;BME280;54902;50.420;18.854;2022-07-23T01:04:48;101775.96;;;19.67;55.37
55044;BME280;54902;50.420;18.854;2022-07-23T01:05:05;101781.70;;;19.65;55.25
55044;BME280;54902;50.420;18.854;2022-07-23T01:05:21;101778.06;;;19.65;55.41
55044;BME280;54902;50.420;18.854;2022-07-23T01:05:40;101776.13;;;19.65;55.51
55044;BME280;54902;50.420;18.854;2022-07-23T01:05:56;101780.67;;;19.66;55.35
55044;BME280;54902;50.420;18.854;2022-07-23T01:06:14;101778.06;;;19.65;55.32
55044;BME280;54902;50.420;18.854;2022-07-23T01:06:34;101773.36;;;19.65;55.36
55044;BME280;54902;50.420;18.854;2022-07-23T01:06:51;101774.05;;;19.59;55.21
55044;BME280;54902;50.420;18.854;2022-07-23T01:07:08;101774.57;;;19.63;55.38
55044;BME280;54902;50.420;18.854;2022-07-23T01:07:24;101777.34;;;19.63;55.34
55044;BME280;54902;50.420;18.854;2022-07-23T01:07:40;101782.05;;;19.62;55.42
55044;BME280;54902;50.420;18.854;2022-07-23T01:07:57;101776.48;;;19.62;55.43
55044;BME280;54902;50.420;18.854;2022-07-23T01:08:13;101772.85;;;19.62;55.45
55044;BME280;54902;50.420;18.854;2022-07-23T01:08:29;101780.30;;;19.61;55.34
55044;BME280;54902;50.420;18.854;2022-07-23T01:08:45;101781.02;;;19.63;55.38
55044;BME280;54902;50.420;18.854;2022-07-23T01:09:03;101776.66;;;19.61;55.46
55044;BME280;54902;50.420;18.854;2022-07-23T01:09:20;101777.52;;;19.61;55.32
55044;BME280;54902;50.420;18.854;2022-07-23T01:09:36;101776.84;;;19.59;55.33
55044;BME280;54902;50.420;18.854;2022-07-23T01:09:54;101775.80;;;19.60;55.49
55044;BME280;54902;50.420;18.854;2022-07-23T01:10:11;101774.91;;;19.60;55.37
55044;BME280;54902;50.420;18.854;2022-07-23T01:10:39;101780.66;;;19.58;55.35
55044;BME280;54902;50.420;18.854;2022-07-23T01:10:56;101772.30;;;19.58;55.47
55044;BME280;54902;50.420;18.854;2022-07-23T01:11:12;101775.95;;;19.59;55.40
55044;BME280;54902;50.420;18.854;2022-07-23T01:11:30;101769.52;;;19.58;55.43
55044;BME280;54902;50.420;18.854;2022-07-23T01:11:47;101768.67;;;19.58;55.42
55044;BME280;54902;50.420;18.854;2022-07-23T01:12:03;101772.66;;;19.55;55.42
55044;BME280;54902;50.420;18.854;2022-07-23T01:12:20;101768.84;;;19.56;55.40
55044;BME280;54902;50.420;18.854;2022-07-23T01:12:36;101773.52;;;19.56;55.38
55044;BME280;54902;50.420;18.854;2022-07-23T01:12:53;101773.34;;;19.57;55.33
55044;BME280;54902;50.420;18.854;2022-07-23T01:13:10;101780.12;;;19.55;55.48
55044;BME280;54902;50.420;18.854;2022-07-23T01:13:26;101771.77;;;19.55;55.46
55044;BME280;54902;50.420;18.854;2022-07-23T01:13:45;101779.09;;;19.56;55.40
55044;BME280;54902;50.420;18.854;2022-07-23T01:14:10;101771.77;;;19.55;55.27
55044;BME280;54902;50.420;18.854;2022-07-23T01:14:27;101772.98;;;19.52;55.39
55044;BME280;54902;50.420;18.854;2022-07-23T01:14:43;101774.73;;;19.53;55.42
55044;BME280;54902;50.420;18.854;2022-07-23T01:14:59;101775.45;;;19.55;55.49
55044;BME280;54902;50.420;18.854;2022-07-23T01:15:01;101784.83;;;19.54;55.44
55044;BME280;54902;50.420;18.854;2022-07-23T01:15:17;101764.49;;;19.54;55.39
55044;BME280;54902;50.420;18.854;2022-07-23T01:15:34;101772.98;;;19.52;55.38
55044;BME280;54902;50.420;18.854;2022-07-23T01:15:51;101770.91;;;19.54;55.31
55044;BME280;54902;50.420;18.854;2022-07-23T01:16:07;101767.59;;;19.51;55.44
55044;BME280;54902;50.420;18.854;2022-07-23T01:16:23;101775.09;;;19.50;55.46
55044;BME280;54902;50.420;18.854;2022-07-23T01:16:40;101769.52;;;19.50;55.45
55044;BME280;54902;50.420;18.854;2022-07-23T01:16:56;101776.48;;;19.54;55.47
55044;BME280;54902;50.420;18.854;2022-07-23T01:17:12;101771.27;;;19.51;55.44
55044;BME280;54902;50.420;18.854;2022-07-23T01:17:28;101768.48;;;19.51;55.32
55044;BME280;54902;50.420;18.854;2022-07-23T01:17:44;101766.73;;;19.50;55.31
55044;BME280;54902;50.420;18.854;2022-07-23T01:18:01;101771.27;;;19.51;55.32
55044;BME280;54902;50.420;18.854;2022-07-23T01:18:17;101771.45;;;19.50;55.35
55044;BME280;54902;50.420;18.854;2022-07-23T01:18:34;101765.88;;;19.50;55.28
55044;BME280;54902;50.420;18.854;2022-07-23T01:18:50;101776.83;;;19.51;55.29
55044;BME280;54902;50.420;18.854;2022-07-23T01:19:06;101764.98;;;19.49;55.18
55044;BME280;54902;50.420;18.854;2022-07-23T01:19:22;101764.80;;;19.51;55.15
55044;BME280;54902;50.420;18.854;2022-07-23T01:19:38;101769.52;;;19.50;55.20
55044;BME280;54902;50.420;18.854;2022-07-23T01:19:54;101766.91;;;19.49;55.20
55044;BME280;54902;50.420;18.854;2022-07-23T01:20:10;101768.66;;;19.50;55.18
55044;BME280;54902;50.420;18.854;2022-07-23T01:20:26;101766.73;;;19.50;55.25
55044;BME280;54902;50.420;18.854;2022-07-23T01:20:43;101766.91;;;19.49;55.40
55044;BME280;54902;50.420;18.854;2022-07-23T01:20:59;101769.52;;;19.50;55.34
55044;BME280;54902;50.420;18.854;2022-07-23T01:21:17;101767.77;;;19.49;55.47
55044;BME280;54902;50.420;18.854;2022-07-23T01:21:40;101775.94;;;19.51;55.35
55044;BME280;54902;50.420;18.854;2022-07-23T01:21:57;101763.09;;;19.50;55.34
55044;BME280;54902;50.420;18.854;2022-07-23T01:22:15;101766.73;;;19.50;55.41
55044;BME280;54902;50.420;18.854;2022-07-23T01:22:33;101762.20;;;19.49;55.47
55044;BME280;54902;50.420;18.854;2022-07-23T01:22:50;101766.73;;;19.50;55.50
55044;BME280;54902;50.420;18.854;2022-07-23T01:23:07;101769.52;;;19.50;55.58
55044;BME280;54902;50.420;18.854;2022-07-23T01:23:23;101762.02;;;19.51;55.48
55044;BME280;54902;50.420;18.854;2022-07-23T01:23:39;101768.48;;;19.51;55.62
55044;BME280;54902;50.420;18.854;2022-07-23T01:23:55;101765.70;;;19.51;55.59
55044;BME280;54902;50.420;18.854;2022-07-23T01:24:12;101762.20;;;19.49;55.61
55044;BME280;54902;50.420;18.854;2022-07-23T01:24:28;101771.95;;;19.53;55.64
55044;BME280;54902;50.420;18.854;2022-07-23T01:24:45;101762.91;;;19.51;55.69
55044;BME280;54902;50.420;18.854;2022-07-23T01:25:01;101757.17;;;19.53;55.67